Time;durP1;ratioP1;P1;durP2;ratioP2;P2;SDS_P1;SDS_P2;PMS_P1;PMS_P2;Temp;Humidity;BMP_temperature;BMP_pressure;BME280_temperature;BME280_humidity;BME280_pressure;Samples;Min_cycle;Max_cycle;Signal;HPM_P1;HPM_P2
2021/10/06 00:01:18;;;;;;;22.50;16.60;;;;;;;5.46;100.00;100930.04;1740922;81;20846;-63
2021/10/06 00:03:45;;;;;;;25.00;15.45;;;;;;;5.36;100.00;100926.37;1741056;81;21383;-63
2021/10/06 00:06:11;;;;;;;25.43;16.70;;;;;;;5.32;100.00;100924.26;1740756;81;20960;-62
2021/10/06 00:08:38;;;;;;;26.12;17.40;;;;;;;5.36;100.00;100923.70;1741148;81;20980;-63
2021/10/06 00:11:06;;;;;;;24.82;16.12;;;;;;;5.36;100.00;100922.38;1737566;81;20881;-63
2021/10/06 00:13:33;;;;;;;30.77;17.82;;;;;;;5.28;100.00;100923.78;1716013;82;20874;-63
2021/10/06 00:16:01;;;;;;;24.55;15.98;;;;;;;5.27;100.00;100927.47;1740728;81;21423;-63
2021/10/06 00:18:28;;;;;;;23.55;16.37;;;;;;;5.22;100.00;100920.55;1740924;81;20940;-63
2021/10/06 00:20:54;;;;;;;29.32;17.23;;;;;;;5.18;100.00;100923.77;1740531;81;20952;-62
2021/10/06 00:23:20;;;;;;;25.68;17.40;;;;;;;5.19;100.00;100917.41;1741207;82;21861;-64
2021/10/06 00:25:47;;;;;;;28.67;17.05;;;;;;;5.15;100.00;100915.64;1741103;81;20936;-63
2021/10/06 00:28:14;;;;;;;23.73;17.77;;;;;;;5.17;100.00;100913.62;1732448;81;20858;-62
2021/10/06 00:30:40;;;;;;;21.50;15.65;;;;;;;5.09;100.00;100919.02;1731158;81;20953;-63
2021/10/06 00:33:06;;;;;;;24.43;17.10;;;;;;;5.02;100.00;100918.96;1726497;81;21449;-63
2021/10/06 00:35:33;;;;;;;22.85;16.20;;;;;;;4.99;100.00;100919.81;1718166;81;21095;-62
2021/10/06 00:37:59;;;;;;;23.38;15.80;;;;;;;5.03;100.00;100915.79;1727277;81;21348;-63
2021/10/06 00:40:26;;;;;;;26.68;17.27;;;;;;;5.01;100.00;100915.14;1735463;81;21051;-62
2021/10/06 00:42:53;;;;;;;21.85;15.03;;;;;;;4.91;100.00;100914.90;1695619;83;21052;-63
2021/10/06 00:45:19;;;;;;;30.02;17.37;;;;;;;4.82;100.00;100915.17;1717632;81;21024;-63
2021/10/06 00:47:46;;;;;;;29.32;16.67;;;;;;;4.81;100.00;100915.69;1683260;83;21368;-63
2021/10/06 00:50:13;;;;;;;27.30;17.48;;;;;;;4.75;100.00;100910.26;1722206;81;20897;-64
2021/10/06 00:52:40;;;;;;;24.98;15.55;;;;;;;4.73;100.00;100915.27;1710729;83;21411;-63
2021/10/06 00:55:08;;;;;;;26.02;16.57;;;;;;;4.73;100.00;100903.81;1732024;82;21007;-63
2021/10/06 00:57:34;;;;;;;25.40;16.23;;;;;;;4.78;100.00;100908.08;1712304;83;20999;-64
2021/10/06 01:00:01;;;;;;;27.15;17.05;;;;;;;4.85;100.00;100917.46;1738623;82;21785;-63
2021/10/06 01:02:28;;;;;;;29.57;16.07;;;;;;;4.85;100.00;100911.66;1684412;83;20882;-63
2021/10/06 01:04:54;;;;;;;25.97;16.90;;;;;;;4.85;100.00;100912.14;1709907;82;20948;-64
2021/10/06 01:07:21;;;;;;;29.98;16.67;;;;;;;4.80;100.00;100908.72;1687439;83;21063;-62
2021/10/06 01:09:47;;;;;;;24.05;17.17;;;;;;;4.72;100.00;100908.79;1711068;83;20885;-62
2021/10/06 01:12:15;;;;;;;32.53;16.97;;;;;;;4.76;100.00;100911.92;1738693;81;21104;-63
2021/10/06 01:14:41;;;;;;;23.90;16.07;;;;;;;4.76;100.00;100910.59;1712395;82;20885;-62
2021/10/06 01:17:08;;;;;;;28.47;18.37;;;;;;;4.75;100.00;100909.74;1738763;82;20941;-62
2021/10/06 01:19:34;;;;;;;27.27;16.97;;;;;;;4.71;100.00;100911.14;1685328;83;20997;-63
2021/10/06 01:22:01;;;;;;;28.02;17.77;;;;;;;4.68;100.00;100915.50;1707868;84;20941;-62
2021/10/06 01:24:29;;;;;;;26.15;16.20;;;;;;;4.66;100.00;100911.68;1682591;83;21811;-63
2021/10/06 01:26:57;;;;;;;27.67;15.93;;;;;;;4.63;100.00;100909.87;1721696;82;20901;-64
2021/10/06 01:29:23;;;;;;;30.52;17.02;;;;;;;4.59;100.00;100917.40;1711965;82;21007;-63
2021/10/06 01:31:50;;;;;;;23.73;16.07;;;;;;;4.58;100.00;100905.60;1710904;84;20925;-63
2021/10/06 01:34:18;;;;;;;34.00;17.30;;;;;;;4.56;100.00;100911.13;1711027;84;20996;-63
2021/10/06 01:36:48;;;;;;;31.03;17.87;;;;;;;4.63;100.00;100913.86;1711884;81;21770;-63
2021/10/06 01:39:15;;;;;;;25.62;16.67;;;;;;;4.67;100.00;100912.50;1740608;80;20940;-63
2021/10/06 01:41:43;;;;;;;29.37;18.45;;;;;;;4.69;100.00;100915.81;1741064;81;20917;-64
2021/10/06 01:44:17;;;;;;;21.10;15.25;;;;;;;4.69;100.00;100923.79;1741132;80;20802;-63
2021/10/06 01:46:44;;;;;;;26.12;16.42;;;;;;;4.64;100.00;100922.17;1729674;82;20956;-63
2021/10/06 01:49:11;;;;;;;30.65;18.48;;;;;;;4.59;100.00;100912.08;1710048;84;21720;-63
2021/10/06 01:51:39;;;;;;;26.23;17.17;;;;;;;4.53;100.00;100915.95;1720350;82;20904;-62
2021/10/06 01:54:07;;;;;;;42.78;17.40;;;;;;;4.50;100.00;100917.97;1722472;82;20915;-62
2021/10/06 01:56:36;;;;;;;27.93;17.45;;;;;;;4.51;100.00;100918.81;1679481;82;20983;-62
2021/10/06 01:59:03;;;;;;;24.87;16.57;;;;;;;4.45;100.00;100921.67;1727419;81;20969;-62
2021/10/06 02:01:30;;;;;;;26.75;18.20;;;;;;;4.40;100.00;100920.06;1710254;82;21139;-63
2021/10/06 02:03:57;;;;;;;32.08;16.17;;;;;;;4.38;100.00;100921.25;1710146;82;20979;-62
2021/10/06 02:06:24;;;;;;;32.25;17.20;;;;;;;4.36;100.00;100927.23;1725468;82;21007;-63
2021/10/06 02:08:51;;;;;;;27.45;19.10;;;;;;;4.40;100.00;100922.72;1714725;81;20924;-64
2021/10/06 02:11:18;;;;;;;23.62;16.60;;;;;;;4.49;100.00;100928.80;1718208;82;20865;-64
2021/10/06 02:13:44;;;;;;;27.87;16.73;;;;;;;4.51;100.00;100932.94;1734669;80;21178;-64
2021/10/06 02:16:11;;;;;;;25.30;16.93;;;;;;;4.53;100.00;100925.27;1716571;82;20889;-65
2021/10/06 02:18:38;;;;;;;24.15;17.27;;;;;;;4.53;100.00;100926.59;1710052;84;20892;-64
2021/10/06 02:21:04;;;;;;;31.77;18.32;;;;;;;4.55;100.00;100928.06;1710222;83;20952;-64
2021/10/06 02:23:31;;;;;;;25.20;16.93;;;;;;;4.60;100.00;100923.53;1709986;82;20881;-65
2021/10/06 02:25:58;;;;;;;26.52;16.52;;;;;;;4.54;100.00;100929.08;1710367;82;21094;-65
2021/10/06 02:28:24;;;;;;;27.13;18.23;;;;;;;4.55;100.00;100929.91;1727178;81;21418;-66
2021/10/06 02:30:51;;;;;;;27.40;16.60;;;;;;;4.56;100.00;100933.72;1710227;82;20825;-65
2021/10/06 02:33:17;;;;;;;27.80;17.35;;;;;;;4.49;100.00;100926.96;1710099;83;21419;-65
2021/10/06 02:35:44;;;;;;;23.92;16.30;;;;;;;4.48;100.00;100930.64;1725298;82;20806;-65
2021/10/06 02:38:10;;;;;;;27.90;18.60;;;;;;;4.39;100.00;100938.87;1736431;81;21132;-65
2021/10/06 02:40:37;;;;;;;23.55;16.20;;;;;;;4.36;100.00;100936.06;1734843;82;20866;-65
2021/10/06 02:43:04;;;;;;;33.00;18.05;;;;;;;4.33;100.00;100938.23;1706259;82;20964;-65
2021/10/06 02:45:31;;;;;;;30.27;17.42;;;;;;;4.29;100.00;100946.58;1705295;83;20913;-66
2021/10/06 02:47:57;;;;;;;27.22;18.02;;;;;;;4.26;100.00;100948.75;1724045;82;20921;-65
2021/10/06 02:50:24;;;;;;;27.90;17.10;;;;;;;4.18;100.00;100960.78;1734895;82;21105;-65
2021/10/06 02:52:51;;;;;;;26.93;16.95;;;;;;;4.19;100.00;100956.63;1728614;82;20920;-66
2021/10/06 02:55:17;;;;;;;24.00;16.55;;;;;;;4.22;100.00;100956.77;1705572;83;20968;-65
2021/10/06 02:57:44;;;;;;;25.17;16.80;;;;;;;4.18;100.00;100960.27;1712700;82;20991;-65
2021/10/06 03:00:12;;;;;;;28.32;16.82;;;;;;;4.17;100.00;100972.42;1719908;81;20885;-64
2021/10/06 03:02:40;;;;;;;27.20;16.73;;;;;;;4.12;100.00;100976.94;1704376;82;21118;-65
2021/10/06 03:05:09;;;;;;;26.00;18.13;;;;;;;4.10;100.00;100972.80;1704891;83;21031;-65
2021/10/06 03:07:36;;;;;;;23.07;16.15;;;;;;;4.08;100.00;100974.30;1675291;85;20972;-65
2021/10/06 03:10:06;;;;;;;28.50;17.42;;;;;;;4.04;100.00;100975.17;1675710;84;21455;-65
2021/10/06 03:12:34;;;;;;;25.75;17.25;;;;;;;4.12;100.00;100977.45;1675658;84;21015;-63
2021/10/06 03:15:01;;;;;;;23.60;16.15;;;;;;;4.08;100.00;100972.46;1675891;85;21696;-64
2021/10/06 03:17:28;;;;;;;25.55;17.27;;;;;;;4.07;100.00;100970.00;1693501;82;20912;-64
2021/10/06 03:19:54;;;;;;;26.12;18.32;;;;;;;4.14;100.00;100978.92;1707172;82;20886;-65
2021/10/06 03:22:21;;;;;;;29.50;17.95;;;;;;;4.22;100.00;100988.16;1715644;82;21412;-64
2021/10/06 03:24:47;;;;;;;27.40;16.45;;;;;;;4.18;100.00;100992.67;1720471;82;20897;-63
2021/10/06 03:27:16;;;;;;;34.43;16.87;;;;;;;4.15;100.00;100994.36;1716187;81;21750;-62
2021/10/06 03:29:43;;;;;;;26.57;15.28;;;;;;;4.11;100.00;100995.70;1705762;83;24314;-63
2021/10/06 03:32:11;;;;;;;28.32;16.85;;;;;;;4.08;100.00;101003.02;1688580;83;21040;-64
2021/10/06 03:34:37;;;;;;;27.60;15.83;;;;;;;4.03;100.00;100998.73;1675692;84;20981;-64
2021/10/06 03:37:04;;;;;;;28.17;15.13;;;;;;;3.97;100.00;100992.81;1707298;80;20869;-63
2021/10/06 03:39:31;;;;;;;24.43;17.32;;;;;;;4.00;100.00;101000.42;1715470;81;21815;-64
2021/10/06 03:41:57;;;;;;;22.22;15.32;;;;;;;4.05;100.00;100986.11;1723129;83;21458;-66
2021/10/06 03:44:24;;;;;;;22.55;14.70;;;;;;;4.00;100.00;100996.44;1695227;84;20838;-65
2021/10/06 03:46:50;;;;;;;24.40;17.17;;;;;;;4.04;100.00;100991.11;1723103;83;20952;-65
2021/10/06 03:49:17;;;;;;;35.17;17.35;;;;;;;4.03;100.00;100981.47;1695075;84;21004;-65
2021/10/06 03:51:44;;;;;;;28.60;16.65;;;;;;;3.97;100.00;100983.98;1723102;81;21115;-64
2021/10/06 03:54:10;;;;;;;26.10;16.42;;;;;;;3.91;100.00;100978.88;1706597;83;20869;-65
2021/10/06 03:56:37;;;;;;;23.70;14.93;;;;;;;3.93;100.00;100983.52;1754420;80;20833;-65
2021/10/06 03:59:03;;;;;;;48.85;17.82;;;;;;;3.90;100.00;100983.88;1725653;82;21339;-65
2021/10/06 04:01:31;;;;;;;25.95;16.07;;;;;;;3.94;100.00;100985.67;1753297;80;20928;-65
2021/10/06 04:03:58;;;;;;;22.40;15.68;;;;;;;3.89;100.00;100986.20;1702420;83;21811;-65
2021/10/06 04:06:25;;;;;;;28.90;17.05;;;;;;;3.86;100.00;100987.88;1745058;82;21012;-64
2021/10/06 04:08:51;;;;;;;28.32;17.23;;;;;;;3.87;100.00;100992.18;1752255;82;21015;-64
2021/10/06 04:11:18;;;;;;;30.20;17.98;;;;;;;3.85;100.00;101000.34;1752032;81;20965;-65
2021/10/06 04:13:44;;;;;;;27.93;17.30;;;;;;;3.87;100.00;100989.52;1751777;82;21008;-65
2021/10/06 04:16:11;;;;;;;24.02;17.65;;;;;;;3.91;100.00;100984.70;1720706;83;21164;-65
2021/10/06 04:18:37;;;;;;;24.00;16.82;;;;;;;3.92;100.00;100991.19;1716176;83;20957;-63
2021/10/06 04:21:04;;;;;;;25.10;17.50;;;;;;;3.96;100.00;100987.66;1710682;83;20909;-64
2021/10/06 04:23:30;;;;;;;27.10;17.17;;;;;;;3.93;100.00;100995.98;1733549;81;20864;-63
2021/10/06 04:25:57;;;;;;;25.50;17.67;;;;;;;3.95;100.00;100996.14;1719844;82;20933;-64
2021/10/06 04:28:23;;;;;;;24.27;16.73;;;;;;;3.98;100.00;100991.80;1699509;83;21162;-63
2021/10/06 04:30:50;;;;;;;30.02;18.87;;;;;;;4.12;100.00;100990.73;1723151;81;20853;-63
2021/10/06 04:33:16;;;;;;;23.55;15.15;;;;;;;4.16;100.00;100988.03;1696483;84;20945;-64
2021/10/06 04:35:43;;;;;;;30.68;18.00;;;;;;;4.18;100.00;100984.70;1724344;82;20872;-65
2021/10/06 04:38:09;;;;;;;27.85;16.85;;;;;;;4.18;100.00;100980.20;1713764;82;20913;-65
2021/10/06 04:40:36;;;;;;;30.85;18.35;;;;;;;4.22;100.00;100976.20;1741023;82;21045;-64
2021/10/06 04:43:10;;;;;;;32.13;18.42;;;;;;;4.34;100.00;100983.77;1732327;80;20958;-63
2021/10/06 04:45:38;;;;;;;30.60;17.75;;;;;;;4.50;100.00;100984.95;1744628;81;20902;-65
2021/10/06 04:48:05;;;;;;;28.98;18.05;;;;;;;4.63;100.00;100983.86;1733817;82;20920;-65
2021/10/06 04:50:32;;;;;;;27.77;17.60;;;;;;;4.77;100.00;100985.39;1733127;81;20943;-65
2021/10/06 04:52:58;;;;;;;24.12;17.15;;;;;;;4.90;100.00;100984.25;1712099;82;21058;-63
2021/10/06 04:55:25;;;;;;;23.87;15.75;;;;;;;5.02;100.00;100987.30;1704884;82;21005;-64
2021/10/06 04:57:53;;;;;;;25.50;14.13;;;;;;;5.12;100.00;100995.36;1734477;81;20945;-65
2021/10/06 05:00:20;;;;;;;22.22;16.27;;;;;;;5.20;100.00;100989.63;1734975;81;21358;-65
2021/10/06 05:02:47;;;;;;;26.55;14.25;;;;;;;5.37;100.00;100990.58;1721256;82;20896;-63
2021/10/06 05:05:15;;;;;;;22.30;14.28;;;;;;;5.47;100.00;100990.81;1730019;81;20994;-63
2021/10/06 05:08:09;;;;;;;30.08;15.83;;;;;;;5.61;100.00;101001.11;1647965;84;21372;-66
2021/10/06 05:10:48;;;;;;;20.52;14.43;;;;;;;5.76;100.00;101005.94;1651847;84;21367;-66
2021/10/06 05:13:16;;;;;;;20.30;13.62;;;;;;;5.84;100.00;101004.48;1649714;85;21004;-65
2021/10/06 05:15:45;;;;;;;22.60;15.25;;;;;;;6.00;100.00;101015.44;1631262;85;21018;-64
2021/10/06 05:18:11;;;;;;;20.40;13.98;;;;;;;6.14;100.00;101015.91;1649907;85;21121;-65
2021/10/06 05:20:38;;;;;;;30.52;14.13;;;;;;;6.24;100.00;101012.94;1651844;85;21001;-65
2021/10/06 05:23:04;;;;;;;22.67;13.62;;;;;;;6.31;100.00;101019.17;1633843;85;21470;-66
2021/10/06 05:25:31;;;;;;;19.87;13.28;;;;;;;6.41;100.00;101025.52;1642088;85;21061;-65
2021/10/06 05:27:57;;;;;;;22.02;14.58;;;;;;;6.44;100.00;101015.31;1662423;85;21007;-65
2021/10/06 05:30:24;;;;;;;22.15;14.15;;;;;;;6.60;100.00;101017.40;1654695;85;21153;-65
2021/10/06 05:32:51;;;;;;;23.77;15.50;;;;;;;6.70;100.00;101025.89;1647312;85;21509;-67
2021/10/06 05:35:18;;;;;;;24.15;14.30;;;;;;;6.82;100.00;101018.20;1646354;85;20962;-66
2021/10/06 05:37:46;;;;;;;18.90;13.83;;;;;;;6.97;100.00;101026.94;1654448;85;20994;-66
2021/10/06 05:40:14;;;;;;;23.97;12.53;;;;;;;7.22;100.00;101023.82;1646713;86;20976;-62
2021/10/06 05:42:41;;;;;;;23.73;12.70;;;;;;;7.35;100.00;101026.59;1634874;86;21206;-62
2021/10/06 05:45:08;;;;;;;19.42;12.07;;;;;;;7.42;100.00;101014.58;1639153;86;21561;-64
2021/10/06 05:47:36;;;;;;;19.20;11.88;;;;;;;7.49;100.00;101022.12;1644323;86;27043;-65
2021/10/06 05:50:04;;;;;;;20.65;12.20;;;;;;;7.58;100.00;101020.13;1646591;86;21087;-63
2021/10/06 05:52:33;;;;;;;23.22;12.90;;;;;;;7.86;100.00;101022.70;1629310;86;21110;-63
2021/10/06 05:55:01;;;;;;;24.15;12.78;;;;;;;8.05;100.00;101023.81;1631817;88;21072;-63
2021/10/06 05:57:28;;;;;;;21.03;12.73;;;;;;;8.28;100.00;101027.46;1633104;87;20906;-64
2021/10/06 05:59:54;;;;;;;16.67;11.97;;;;;;;8.40;100.00;101029.06;1632532;87;21721;-65
2021/10/06 06:02:21;;;;;;;22.77;11.63;;;;;;;8.50;100.00;101030.83;1632932;86;21569;-63
2021/10/06 06:04:47;;;;;;;13.98;10.28;;;;;;;8.66;100.00;101029.10;1632968;86;20952;-62
2021/10/06 06:07:14;;;;;;;17.85;11.83;;;;;;;8.71;100.00;101033.32;1633371;87;21214;-65
2021/10/06 06:09:41;;;;;;;22.98;11.05;;;;;;;8.79;100.00;101030.95;1633588;85;20992;-65
2021/10/06 06:12:09;;;;;;;17.27;11.78;;;;;;;8.93;100.00;101039.30;1610452;87;20921;-64
2021/10/06 06:14:39;;;;;;;19.52;11.93;;;;;;;9.17;100.00;101040.52;1661214;84;20946;-66
2021/10/06 06:17:09;;;;;;;18.57;10.80;;;;;;;9.21;100.00;101027.03;1641013;86;21534;-63
2021/10/06 06:19:49;;;;;;;17.30;12.20;;;;;;;9.34;100.00;101019.47;1605625;86;21572;-66
2021/10/06 06:22:16;;;;;;;21.35;11.60;;;;;;;9.38;100.00;101014.50;1597671;88;21008;-66
2021/10/06 06:24:43;;;;;;;22.15;11.78;;;;;;;9.39;100.00;101025.02;1604088;88;21017;-65
2021/10/06 06:27:09;;;;;;;13.78;10.35;;;;;;;9.58;100.00;101034.58;1625363;87;21049;-66
2021/10/06 06:29:37;;;;;;;16.83;11.37;;;;;;;9.59;100.00;101020.13;1604403;88;20923;-64
2021/10/06 06:32:05;;;;;;;14.07;9.93;;;;;;;9.76;100.00;101036.05;1625266;86;21099;-65
2021/10/06 06:34:31;;;;;;;16.27;11.73;;;;;;;9.86;100.00;101036.94;1624881;87;20995;-65
2021/10/06 06:36:58;;;;;;;20.10;11.80;;;;;;;10.01;100.00;101034.80;1624665;86;21138;-64
2021/10/06 06:39:24;;;;;;;18.32;11.35;;;;;;;10.34;100.00;101035.69;1624904;86;21082;-64
2021/10/06 06:41:51;;;;;;;21.70;11.48;;;;;;;10.38;100.00;101032.36;1625474;88;21582;-65
2021/10/06 06:44:18;;;;;;;19.55;10.80;;;;;;;10.70;100.00;101039.88;1625332;86;21150;-65
2021/10/06 06:46:45;;;;;;;16.10;9.53;;;;;;;10.75;100.00;101041.91;1624988;87;20967;-65
2021/10/06 06:49:12;;;;;;;19.70;11.93;;;;;;;10.77;100.00;101046.55;1603816;88;21026;-63
2021/10/06 06:51:38;;;;;;;14.58;10.50;;;;;;;10.75;100.00;101039.22;1623489;86;22278;-66
2021/10/06 06:54:05;;;;;;;22.90;11.22;;;;;;;11.13;100.00;101054.42;1621227;86;20940;-65
2021/10/06 06:56:33;;;;;;;17.42;11.35;;;;;;;11.27;100.00;101057.79;1621172;86;21154;-65
2021/10/06 06:59:00;;;;;;;23.20;12.07;;;;;;;11.21;100.00;101057.34;1665631;84;21003;-65
2021/10/06 07:01:27;;;;;;;11.75;7.87;;;;;;;11.53;100.00;101052.67;1664081;84;21122;-64
2021/10/06 07:03:54;;;;;;;16.17;9.78;;;;;;;11.55;100.00;101052.75;1664078;84;21009;-64
2021/10/06 07:06:20;;;;;;;17.55;10.95;;;;;;;11.45;100.00;101051.63;1634719;84;21519;-66
2021/10/06 07:08:48;;;;;;;;;;;;;;;11.54;100.00;101055.68;1574466;89;20969;-66
2021/10/06 07:11:15;;;;;;;13.93;9.90;;;;;;;11.51;100.00;101052.92;1564882;89;20091;-67
2021/10/06 07:13:43;;;;;;;14.13;10.38;;;;;;;11.59;100.00;101051.80;1571399;91;20973;-66
2021/10/06 07:16:09;;;;;;;19.67;10.72;;;;;;;11.92;100.00;101058.68;1568806;91;21017;-67
2021/10/06 07:18:36;;;;;;;13.95;10.18;;;;;;;12.34;100.00;101068.17;1574669;91;20966;-66
2021/10/06 07:21:03;;;;;;;14.33;10.00;;;;;;;12.58;100.00;101063.69;1545187;91;21134;-65
2021/10/06 07:23:29;;;;;;;14.38;10.75;;;;;;;12.28;92.70;101066.41;1579676;89;21082;-65
2021/10/06 07:25:56;;;;;;;13.00;9.55;;;;;;;12.17;94.32;101067.45;1586777;89;20959;-67
2021/10/06 07:28:23;;;;;;;15.90;9.55;;;;;;;12.16;93.39;101074.42;1574501;90;20990;-66
2021/10/06 07:30:50;;;;;;;15.95;9.45;;;;;;;12.34;92.31;101069.52;1562324;90;21503;-67
2021/10/06 07:33:17;;;;;;;13.93;9.38;;;;;;;12.36;91.81;101072.28;1565674;90;21114;-64
2021/10/06 07:35:44;;;;;;;17.65;9.73;;;;;;;12.43;91.12;101073.01;1565068;90;21538;-65
2021/10/06 07:38:12;;;;;;;12.58;9.10;;;;;;;12.68;89.59;101077.41;1565736;91;20892;-66
2021/10/06 07:40:39;;;;;;;13.25;9.85;;;;;;;12.73;88.21;101067.30;1640472;86;21000;-66
2021/10/06 07:43:06;;;;;;;15.88;10.05;;;;;;;12.75;87.42;101071.94;1645482;84;21486;-66
2021/10/06 07:45:34;;;;;;;16.95;9.43;;;;;;;12.96;86.69;101067.35;1639080;86;21136;-68
2021/10/06 07:48:05;;;;;;;15.80;9.15;;;;;;;13.16;84.11;101072.41;1595383;85;22158;-66
2021/10/06 07:50:36;;;;;;;14.85;8.48;;;;;;;12.91;81.86;101076.66;1635831;86;21116;-67
2021/10/06 07:53:03;;;;;;;12.65;8.08;;;;;;;13.19;80.52;101075.16;1641428;86;20953;-67
2021/10/06 07:55:34;;;;;;;25.97;9.43;;;;;;;13.08;80.42;101070.03;1661412;86;21056;-66
2021/10/06 07:58:01;;;;;;;15.60;8.23;;;;;;;13.19;81.34;101077.86;1626060;86;21136;-65
2021/10/06 08:00:28;;;;;;;20.40;9.48;;;;;;;13.40;79.13;101076.47;1653332;86;20953;-66
2021/10/06 08:02:55;;;;;;;14.00;8.40;;;;;;;13.56;78.32;101080.34;1631196;86;21058;-65
2021/10/06 08:05:23;;;;;;;;;;;;;;;13.70;76.75;101074.45;1654476;86;20974;-65
2021/10/06 08:07:50;;;;;;;13.10;8.25;;;;;;;14.07;74.82;101075.48;1652380;86;20122;-66
2021/10/06 08:10:16;;;;;;;17.00;7.92;;;;;;;13.69;73.23;101067.94;1659242;85;21021;-65
2021/10/06 08:12:43;;;;;;;11.45;7.72;;;;;;;13.46;73.79;101074.19;1652784;86;20932;-65
2021/10/06 08:15:10;;;;;;;9.65;7.65;;;;;;;13.64;74.12;101089.41;1652628;85;20995;-66
2021/10/06 08:17:46;;;;;;;12.75;8.03;;;;;;;13.65;73.70;101081.63;1670723;85;21127;-66
2021/10/06 08:20:13;;;;;;;16.27;8.90;;;;;;;13.75;71.36;101073.75;1650383;85;21135;-67
2021/10/06 08:22:40;;;;;;;;;;;;;;;13.77;72.67;101083.78;1664504;85;21778;-66
2021/10/06 08:25:09;;;;;;;16.25;7.80;;;;;;;14.14;71.72;101074.81;1642729;85;20176;-65
2021/10/06 08:27:36;;;;;;;9.50;7.15;;;;;;;14.38;69.03;101061.22;1637298;85;21326;-64
2021/10/06 08:30:04;;;;;;;11.48;7.58;;;;;;;14.18;67.12;101066.22;1634665;86;20941;-65
2021/10/06 08:32:32;;;;;;;9.10;6.33;;;;;;;14.23;68.26;101064.97;1654603;85;21049;-65
2021/10/06 08:34:59;;;;;;;9.28;6.50;;;;;;;14.22;66.25;101068.20;1617844;86;21171;-65
2021/10/06 08:37:25;;;;;;;13.30;6.50;;;;;;;14.39;65.20;101069.60;1664362;85;20986;-65
2021/10/06 08:39:52;;;;;;;12.28;7.12;;;;;;;14.57;65.00;101057.25;1653174;85;21461;-65
2021/10/06 08:42:20;;;;;;;9.55;5.90;;;;;;;14.54;62.09;101078.01;1649084;85;21057;-65
2021/10/06 08:44:46;;;;;;;;;;;;;;;14.45;61.84;101064.56;1636007;86;21074;-65
2021/10/06 08:47:14;;;;;;;17.48;7.92;;;;;;;14.31;60.74;101047.86;1605490;88;21919;-63
2021/10/06 08:49:44;;;;;;;12.13;6.60;;;;;;;14.45;62.02;101064.56;1628181;86;21156;-64
2021/10/06 08:52:11;;;;;;;14.25;6.22;;;;;;;14.50;60.90;101057.09;1636533;86;21209;-64
2021/10/06 08:54:38;;;;;;;7.22;5.53;;;;;;;14.85;60.25;101061.52;1659699;85;21617;-66
2021/10/06 08:57:05;;;;;;;21.65;6.25;;;;;;;14.88;57.49;101057.78;1632414;87;21119;-66
2021/10/06 08:59:33;;;;;;;11.78;6.72;;;;;;;14.88;57.96;101074.00;1605731;88;21094;-65
2021/10/06 09:02:12;;;;;;;10.50;5.45;;;;;;;14.97;57.03;101070.38;1663222;84;21016;-65
2021/10/06 09:04:41;;;;;;;23.22;5.90;;;;;;;15.29;57.11;101069.23;1664064;85;21005;-67
2021/10/06 09:07:08;;;;;;;8.30;5.75;;;;;;;15.48;53.83;101045.41;1663254;84;20994;-61
2021/10/06 09:09:37;;;;;;;10.05;4.60;;;;;;;15.22;52.94;101049.11;1642778;85;20956;-63
2021/10/06 09:12:14;;;;;;;;;;;;;;;15.11;53.82;101054.08;1665019;85;21533;-62
2021/10/06 09:14:43;;;;;;;10.85;5.10;;;;;;;15.38;53.52;101062.31;1674457;85;28682;-65
2021/10/06 09:17:14;;;;;;;12.13;5.15;;;;;;;14.77;53.30;101058.66;1626645;87;21067;-64
2021/10/06 09:19:44;;;;;;;7.65;4.87;;;;;;;14.62;54.78;101060.58;1627331;85;21016;-64
2021/10/06 09:22:30;;;;;;;9.38;4.65;;;;;;;14.68;51.65;101042.59;1644855;86;21501;-63
2021/10/06 09:25:02;;;;;;;10.48;4.85;;;;;;;14.79;52.28;101049.78;1653597;84;21154;-62
2021/10/06 09:27:32;;;;;;;7.60;4.90;;;;;;;14.84;50.30;101051.75;1653645;86;20956;-64
2021/10/06 09:30:02;;;;;;;7.80;4.75;;;;;;;14.67;51.49;101022.02;1631322;88;21067;-63
2021/10/06 09:32:43;;;;;;;11.10;5.05;;;;;;;14.97;50.97;101032.52;1631337;85;20914;-65
2021/10/06 09:35:25;;;;;;;13.93;5.87;;;;;;;14.97;50.64;101041.98;1650383;86;21081;-63
2021/10/06 09:37:54;;;;;;;15.45;6.47;;;;;;;15.06;51.22;101048.59;1631751;87;21985;-63
2021/10/06 09:40:26;;;;;;;9.80;4.83;;;;;;;15.68;50.44;101054.86;1607115;87;21551;-63
2021/10/06 09:42:59;;;;;;;9.93;4.35;;;;;;;16.01;49.15;101053.41;1632282;86;21022;-63
2021/10/06 09:45:34;;;;;;;12.53;4.85;;;;;;;16.07;46.44;101050.25;1632596;86;21009;-63
2021/10/06 09:48:06;;;;;;;5.20;4.42;;;;;;;15.91;46.34;101056.55;1635877;84;20984;-63
2021/10/06 09:50:36;;;;;;;9.73;4.90;;;;;;;14.95;46.98;101039.52;1638271;86;21735;-64
2021/10/06 09:53:12;;;;;;;6.35;4.92;;;;;;;14.70;48.61;101052.59;1629115;86;21044;-65
2021/10/06 09:55:48;;;;;;;10.30;4.40;;;;;;;15.43;48.39;101062.92;1635714;86;20981;-65
2021/10/06 09:58:15;;;;;;;7.05;4.70;;;;;;;15.79;45.59;101054.78;1636175;86;20990;-67
2021/10/06 10:00:44;;;;;;;10.55;5.22;;;;;;;15.40;46.87;101065.59;1634843;86;20995;-65
2021/10/06 10:03:25;;;;;;;4.58;3.55;;;;;;;15.05;47.40;101071.30;1628386;88;21728;-67
2021/10/06 10:05:52;;;;;;;5.85;4.75;;;;;;;14.40;47.74;101032.59;1624629;87;20886;-66
2021/10/06 10:08:20;;;;;;;8.78;5.00;;;;;;;14.30;49.28;101062.41;1632531;86;21648;-64
2021/10/06 10:10:46;;;;;;;5.83;3.98;;;;;;;14.13;48.52;101044.83;1631910;87;21071;-64
2021/10/06 10:13:13;;;;;;;7.90;4.33;;;;;;;14.50;49.17;101048.48;1636528;86;21037;-64
2021/10/06 10:15:41;;;;;;;18.48;5.50;;;;;;;14.93;46.73;101049.75;1598493;86;21166;-63
2021/10/06 10:18:09;;;;;;;9.15;5.00;;;;;;;14.54;45.39;101047.47;1662967;84;21099;-65
2021/10/06 10:20:42;;;;;;;;;;;;;;;14.30;46.08;101055.66;1677153;84;21162;-67
2021/10/06 10:23:33;;;;;;;8.00;4.08;;;;;;;14.10;46.08;101043.94;1675019;84;20174;-64
2021/10/06 10:25:59;;;;;;;4.47;3.90;;;;;;;13.91;46.39;101015.48;1592557;88;21002;-63
2021/10/06 10:28:28;;;;;;;4.72;4.22;;;;;;;13.73;45.93;101035.38;1582085;89;21155;-62
2021/10/06 10:30:59;;;;;;;7.80;3.70;;;;;;;14.18;44.25;101033.81;1561404;90;21044;-62
2021/10/06 10:33:47;;;;;;;8.83;4.28;;;;;;;14.18;43.68;101042.73;1582867;90;21139;-63
2021/10/06 10:36:37;;;;;;;12.25;3.90;;;;;;;14.29;43.96;101035.66;1569771;90;21524;-63
2021/10/06 10:39:39;;;;;;;10.55;4.58;;;;;;;14.52;42.85;101050.37;1559679;90;21035;-65
2021/10/06 10:42:06;;;;;;;17.37;4.72;;;;;;;14.36;43.58;101043.08;1557187;91;21116;-64
2021/10/06 10:44:37;;;;;;;13.83;4.35;;;;;;;14.27;43.32;101041.29;1548547;90;21015;-64
2021/10/06 10:47:07;;;;;;;6.15;4.80;;;;;;;14.48;42.72;101036.27;1560548;90;21032;-61
2021/10/06 10:49:54;;;;;;;7.53;4.30;;;;;;;14.84;42.32;101046.34;1561568;90;21094;-66
2021/10/06 10:52:47;;;;;;;9.43;4.53;;;;;;;15.45;41.34;101054.03;1569215;90;21025;-65
2021/10/06 10:55:17;;;;;;;7.58;4.42;;;;;;;15.74;39.89;101039.83;1565339;91;21169;-66
2021/10/06 10:57:43;;;;;;;15.83;5.20;;;;;;;15.11;40.80;101055.97;1563885;91;21038;-60
2021/10/06 11:00:31;;;;;;;5.80;4.33;;;;;;;14.80;41.25;101047.38;1562439;91;21501;-64
2021/10/06 11:03:01;;;;;;;7.05;4.40;;;;;;;14.59;41.86;101040.80;1554022;91;21111;-65
2021/10/06 11:05:46;;;;;;;6.72;5.08;;;;;;;14.33;42.81;101022.78;1555004;91;20969;-63
2021/10/06 11:08:30;;;;;;;30.45;15.75;;;;;;;14.32;42.68;101042.73;1558881;89;21155;-63
2021/10/06 11:11:15;;;;;;;8.83;5.05;;;;;;;14.54;42.77;101040.72;1559584;90;21069;-65
2021/10/06 11:13:46;;;;;;;9.28;4.95;;;;;;;14.35;43.01;101028.73;1560382;92;21540;-63
2021/10/06 11:16:13;;;;;;;6.67;5.37;;;;;;;14.10;43.18;101037.19;1614478;84;21062;-63
2021/10/06 11:18:51;;;;;;;10.13;5.45;;;;;;;13.91;43.85;101012.28;1663182;84;21002;-62
2021/10/06 11:21:37;;;;;;;6.03;4.67;;;;;;;13.74;44.36;101038.36;1662992;86;21156;-63